sensor_id;sensor_type;location;lat;lon;timestamp;pressure;altitude;pressure_sealevel;temperature;humidity
10060;BME280;5069;49.306;8.636;2023-02-12T00:01:59;102615.38;;;6.46;100.00
10060;BME280;5069;49.306;8.636;2023-02-12T00:05:01;102615.38;;;6.46;100.00
10060;BME280;5069;49.306;8.636;2023-02-12T00:08:02;102618.84;;;6.45;100.00
10060;BME280;5069;49.306;8.636;2023-02-12T00:14:09;102615.25;;;6.40;100.00
10060;BME280;5069;49.306;8.636;2023-02-12T00:17:11;102622.22;;;6.39;100.00
10060;BME280;5069;49.306;8.636;2023-02-12T00:20:12;102618.97;;;6.51;100.00
10060;BME280;5069;49.306;8.636;2023-02-12T00:23:14;102617.19;;;6.50;100.00
10060;BME280;5069;49.306;8.636;2023-02-12T00:26:17;102616.28;;;6.48;100.00
10060;BME280;5069;49.306;8.636;2023-02-12T00:29:22;102622.44;;;6.50;100.00
10060;BME280;5069;49.306;8.636;2023-02-12T00:32:24;102618.97;;;6.51;100.00
10060;BME280;5069;49.306;8.636;2023-02-12T00:35:25;102630.28;;;6.48;100.00
10060;BME280;5069;49.306;8.636;2023-02-12T00:38:26;102625.84;;;6.46;100.00
10060;BME280;5069;49.306;8.636;2023-02-12T00:41:28;102621.53;;;6.49;100.00
10060;BME280;5069;49.306;8.636;2023-02-12T00:44:30;102622.44;;;6.50;100.00
10060;BME280;5069;49.306;8.636;2023-02-12T00:47:31;102621.53;;;6.49;100.00
10060;BME280;5069;49.306;8.636;2023-02-12T00:50:32;102626.69;;;6.43;100.00
10060;BME280;5069;49.306;8.636;2023-02-12T00:53:34;102624.78;;;6.35;100.00
10060;BME280;5069;49.306;8.636;2023-02-12T00:56:35;102627.38;;;6.35;100.00
10060;BME280;5069;49.306;8.636;2023-02-12T00:59:37;102636.22;;;6.40;100.00
10060;BME280;5069;49.306;8.636;2023-02-12T01:02:40;102640.66;;;6.44;100.00
10060;BME280;5069;49.306;8.636;2023-02-12T01:05:42;102645.13;;;6.48;100.00
10060;BME280;5069;49.306;8.636;2023-02-12T01:08:43;102640.75;;;6.48;100.00
10060;BME280;5069;49.306;8.636;2023-02-12T01:11:45;102646.88;;;6.49;100.00
10060;BME280;5069;49.306;8.636;2023-02-12T01:14:46;102645.13;;;6.48;100.00
10060;BME280;5069;49.306;8.636;2023-02-12T01:17:51;102640.66;;;6.44;100.00
10060;BME280;5069;49.306;8.636;2023-02-12T01:20:53;102642.41;;;6.43;100.00
10060;BME280;5069;49.306;8.636;2023-02-12T01:23:57;102638.91;;;6.43;100.00
10060;BME280;5069;49.306;8.636;2023-02-12T01:26:58;102644.13;;;6.41;100.00
10060;BME280;5069;49.306;8.636;2023-02-12T01:30:02;102646.69;;;6.40;100.00
10060;BME280;5069;49.306;8.636;2023-02-12T01:33:04;102641.34;;;6.34;100.00
10060;BME280;5069;49.306;8.636;2023-02-12T01:36:06;102628.19;;;6.31;100.00
10060;BME280;5069;49.306;8.636;2023-02-12T01:39:10;102638.72;;;6.34;100.00
10060;BME280;5069;49.306;8.636;2023-02-12T01:42:14;102629.16;;;6.36;100.00
10060;BME280;5069;49.306;8.636;2023-02-12T01:48:18;102627.38;;;6.35;100.00
10060;BME280;5069;49.306;8.636;2023-02-12T01:51:21;102622.16;;;6.35;100.00
10060;BME280;5069;49.306;8.636;2023-02-12T01:54:24;102622.22;;;6.38;100.00
10060;BME280;5069;49.306;8.636;2023-02-12T01:57:30;102621.34;;;6.39;100.00
10060;BME280;5069;49.306;8.636;2023-02-12T02:00:32;102614.28;;;6.35;100.00
10060;BME280;5069;49.306;8.636;2023-02-12T02:03:35;102618.59;;;6.33;100.00
10060;BME280;5069;49.306;8.636;2023-02-12T02:06:58;102621.25;;;6.34;100.00
10060;BME280;5069;49.306;8.636;2023-02-12T02:10:00;102621.25;;;6.34;100.00
10060;BME280;5069;49.306;8.636;2023-02-12T02:13:02;102616.78;;;6.29;100.00
10060;BME280;5069;49.306;8.636;2023-02-12T02:16:25;102615.00;;;6.26;100.00
10060;BME280;5069;49.306;8.636;2023-02-12T02:26:57;102613.16;;;6.20;100.00
10060;BME280;5069;49.306;8.636;2023-02-12T02:33:34;102622.78;;;6.23;100.00
10060;BME280;5069;49.306;8.636;2023-02-12T02:37:02;102615.91;;;6.28;100.00
10060;BME280;5069;49.306;8.636;2023-02-12T02:40:12;102608.09;;;6.30;100.00
10060;BME280;5069;49.306;8.636;2023-02-12T02:43:19;102615.09;;;6.31;100.00
10060;BME280;5069;49.306;8.636;2023-02-12T02:46:30;102620.38;;;6.34;100.00
10060;BME280;5069;49.306;8.636;2023-02-12T02:49:43;102613.38;;;6.33;100.00
10060;BME280;5069;49.306;8.636;2023-02-12T02:52:49;102609.78;;;6.28;100.00
10060;BME280;5069;49.306;8.636;2023-02-12T02:55:54;102614.13;;;6.27;100.00
10060;BME280;5069;49.306;8.636;2023-02-12T02:59:01;102612.41;;;6.28;100.00
10060;BME280;5069;49.306;8.636;2023-02-12T03:02:08;102607.06;;;6.23;100.00
10060;BME280;5069;49.306;8.636;2023-02-12T03:05:20;102614.78;;;6.15;100.00
10060;BME280;5069;49.306;8.636;2023-02-12T03:08:28;102621.75;;;6.13;100.00
10060;BME280;5069;49.306;8.636;2023-02-12T03:11:34;102614.78;;;6.14;100.00
10060;BME280;5069;49.306;8.636;2023-02-12T03:14:48;102611.38;;;6.19;100.00
10060;BME280;5069;49.306;8.636;2023-02-12T03:17:53;102615.81;;;6.23;100.00
10060;BME280;5069;49.306;8.636;2023-02-12T03:21:05;102614.03;;;6.22;100.00
10060;BME280;5069;49.306;8.636;2023-02-12T03:24:21;102614.91;;;6.21;100.00
10060;BME280;5069;49.306;8.636;2023-02-12T03:27:32;102616.72;;;6.24;100.00
10060;BME280;5069;49.306;8.636;2023-02-12T03:34:24;102620.94;;;6.17;100.00
10060;BME280;5069;49.306;8.636;2023-02-12T03:37:33;102616.50;;;6.13;100.00
10060;BME280;5069;49.306;8.636;2023-02-12T03:40:40;102619.97;;;6.12;100.00
10060;BME280;5069;49.306;8.636;2023-02-12T03:44:08;102617.34;;;6.12;100.00
10060;BME280;5069;49.306;8.636;2023-02-12T03:47:24;102614.78;;;6.15;100.00
10060;BME280;5069;49.306;8.636;2023-02-12T03:53:40;102612.06;;;6.09;100.00
10060;BME280;5069;49.306;8.636;2023-02-12T03:56:51;102611.31;;;6.16;100.00
10060;BME280;5069;49.306;8.636;2023-02-12T03:59:54;102614.13;;;6.26;100.00
10060;BME280;5069;49.306;8.636;2023-02-12T04:02:55;102611.44;;;6.22;100.00
10060;BME280;5069;49.306;8.636;2023-02-12T04:05:57;102620.09;;;6.18;100.00
10060;BME280;5069;49.306;8.636;2023-02-12T04:09:03;102627.91;;;6.17;100.00
10060;BME280;5069;49.306;8.636;2023-02-12T04:12:28;102613.91;;;6.15;100.00
10060;BME280;5069;49.306;8.636;2023-02-12T04:15:54;102628.53;;;6.05;100.00
10060;BME280;5069;49.306;8.636;2023-02-12T04:18:58;102626.81;;;6.06;100.00
10060;BME280;5069;49.306;8.636;2023-02-12T04:22:13;102628.50;;;6.02;100.00
10060;BME280;5069;49.306;8.636;2023-02-12T04:28:56;102642.34;;;5.98;100.00
10060;BME280;5069;49.306;8.636;2023-02-12T04:32:05;102635.38;;;5.97;100.00
10060;BME280;5069;49.306;8.636;2023-02-12T04:35:21;102638.00;;;5.99;100.00
10060;BME280;5069;49.306;8.636;2023-02-12T04:38:56;102643.28;;;6.00;100.00
10060;BME280;5069;49.306;8.636;2023-02-12T04:42:00;102640.75;;;6.03;100.00
10060;BME280;5069;49.306;8.636;2023-02-12T04:45:01;102638.25;;;6.11;100.00
10060;BME280;5069;49.306;8.636;2023-02-12T04:48:04;102641.09;;;6.21;100.00
10060;BME280;5069;49.306;8.636;2023-02-12T04:51:05;102635.81;;;6.18;100.00
10060;BME280;5069;49.306;8.636;2023-02-12T04:54:07;102641.00;;;6.17;100.00
10060;BME280;5069;49.306;8.636;2023-02-12T04:57:08;102639.31;;;6.19;100.00
10060;BME280;5069;49.306;8.636;2023-02-12T05:00:13;102640.16;;;6.18;100.00
10060;BME280;5069;49.306;8.636;2023-02-12T05:03:15;102636.66;;;6.17;100.00
10060;BME280;5069;49.306;8.636;2023-02-12T05:06:17;102638.47;;;6.20;100.00
10060;BME280;5069;49.306;8.636;2023-02-12T05:09:19;102636.72;;;6.20;100.00
10060;BME280;5069;49.306;8.636;2023-02-12T05:12:20;102629.75;;;6.22;100.00
10060;BME280;5069;49.306;8.636;2023-02-12T05:15:22;102630.84;;;6.34;100.00
10060;BME280;5069;49.306;8.636;2023-02-12T05:18:24;102629.09;;;6.33;100.00
10060;BME280;5069;49.306;8.636;2023-02-12T05:21:25;102618.56;;;6.30;100.00
10060;BME280;5069;49.306;8.636;2023-02-12T05:24:27;102623.69;;;6.23;100.00
10060;BME280;5069;49.306;8.636;2023-02-12T05:27:28;102625.38;;;6.21;100.00
10060;BME280;5069;49.306;8.636;2023-02-12T05:30:29;102621.88;;;6.19;100.00
10060;BME280;5069;49.306;8.636;2023-02-12T05:33:31;102619.25;;;6.21;100.00
10060;BME280;5069;49.306;8.636;2023-02-12T05:36:33;102614.91;;;6.21;100.00
10060;BME280;5069;49.306;8.636;2023-02-12T05:39:34;102623.63;;;6.20;100.00
10060;BME280;5069;49.306;8.636;2023-02-12T05:42:35;102628.78;;;6.17;100.00
10060;BME280;5069;49.306;8.636;2023-02-12T05:45:37;102625.25;;;6.15;100.00
10060;BME280;5069;49.306;8.636;2023-02-12T05:48:41;102632.22;;;6.13;100.00
10060;BME280;5069;49.306;8.636;2023-02-12T05:51:42;102637.44;;;6.13;100.00
10060;BME280;5069;49.306;8.636;2023-02-12T05:54:44;102637.50;;;6.16;100.00
10060;BME280;5069;49.306;8.636;2023-02-12T05:57:45;102634.78;;;6.12;100.00
10060;BME280;5069;49.306;8.636;2023-02-12T06:00:47;102637.31;;;6.07;100.00
10060;BME280;5069;49.306;8.636;2023-02-12T06:03:48;102644.25;;;6.05;100.00
10060;BME280;5069;49.306;8.636;2023-02-12T06:06:50;102648.59;;;6.05;100.00
10060;BME280;5069;49.306;8.636;2023-02-12T06:09:52;102643.34;;;6.03;100.00
10060;BME280;5069;49.306;8.636;2023-02-12T06:12:55;102649.41;;;6.01;100.00
10060;BME280;5069;49.306;8.636;2023-02-12T06:15:56;102646.81;;;6.02;100.00
10060;BME280;5069;49.306;8.636;2023-02-12T06:19:01;102650.28;;;6.01;100.00
10060;BME280;5069;49.306;8.636;2023-02-12T06:22:03;102653.78;;;6.02;100.00
10060;BME280;5069;49.306;8.636;2023-02-12T06:25:05;102652.03;;;6.01;100.00
10060;BME280;5069;49.306;8.636;2023-02-12T06:28:06;102651.22;;;6.03;100.00
10060;BME280;5069;49.306;8.636;2023-02-12T06:31:18;102653.84;;;6.05;100.00
10060;BME280;5069;49.306;8.636;2023-02-12T06:34:20;102660.91;;;6.07;100.00
10060;BME280;5069;49.306;8.636;2023-02-12T06:37:21;102661.81;;;6.09;100.00
10060;BME280;5069;49.306;8.636;2023-02-12T06:40:23;102653.88;;;6.06;100.00
10060;BME280;5069;49.306;8.636;2023-02-12T06:43:24;102665.19;;;6.05;100.00
10060;BME280;5069;49.306;8.636;2023-02-12T06:46:26;102666.97;;;6.06;100.00
10060;BME280;5069;49.306;8.636;2023-02-12T06:49:27;102662.53;;;6.02;100.00
10060;BME280;5069;49.306;8.636;2023-02-12T06:52:28;102665.16;;;6.02;100.00
10060;BME280;5069;49.306;8.636;2023-02-12T06:55:30;102663.41;;;6.03;100.00
10060;BME280;5069;49.306;8.636;2023-02-12T06:58:31;102670.38;;;6.02;100.00
10060;BME280;5069;49.306;8.636;2023-02-12T07:01:33;102675.59;;;6.01;100.00
10060;BME280;5069;49.306;8.636;2023-02-12T07:04:36;102671.16;;;5.98;100.00
10060;BME280;5069;49.306;8.636;2023-02-12T07:07:38;102670.31;;;5.99;100.00
10060;BME280;5069;49.306;8.636;2023-02-12T07:10:39;102674.69;;;6.00;100.00
10060;BME280;5069;49.306;8.636;2023-02-12T07:13:42;102673.00;;;6.04;100.00
10060;BME280;5069;49.306;8.636;2023-02-12T07:16:43;102681.97;;;6.13;100.00
10060;BME280;5069;49.306;8.636;2023-02-12T07:19:45;102676.06;;;6.23;100.00
10060;BME280;5069;49.306;8.636;2023-02-12T07:22:46;102688.50;;;6.34;100.00
10060;BME280;5069;49.306;8.636;2023-02-12T07:25:59;102678.34;;;6.50;100.00
10060;BME280;5069;49.306;8.636;2023-02-12T07:29:01;102685.31;;;6.50;100.00
10060;BME280;5069;49.306;8.636;2023-02-12T07:32:02;102691.28;;;6.41;100.00
10060;BME280;5069;49.306;8.636;2023-02-12T07:35:04;102685.28;;;6.47;100.00
10060;BME280;5069;49.306;8.636;2023-02-12T07:38:06;102685.16;;;6.41;100.00
10060;BME280;5069;49.306;8.636;2023-02-12T07:41:19;102684.00;;;6.28;100.00
10060;BME280;5069;49.306;8.636;2023-02-12T07:44:21;102685.75;;;6.26;100.00
10060;BME280;5069;49.306;8.636;2023-02-12T07:47:22;102684.00;;;6.28;100.00
10060;BME280;5069;49.306;8.636;2023-02-12T07:50:23;102689.34;;;6.31;100.00
10060;BME280;5069;49.306;8.636;2023-02-12T07:53:25;102690.25;;;6.35;100.00
10060;BME280;5069;49.306;8.636;2023-02-12T07:56:29;102690.34;;;6.39;100.00
10060;BME280;5069;49.306;8.636;2023-02-12T07:59:32;102695.75;;;6.47;100.00
10060;BME280;5069;49.306;8.636;2023-02-12T08:02:34;102699.22;;;6.46;100.00
10060;BME280;5069;49.306;8.636;2023-02-12T08:05:35;102699.38;;;6.53;100.00
10060;BME280;5069;49.306;8.636;2023-02-12T08:08:37;102687.13;;;6.52;100.00
10060;BME280;5069;49.306;8.636;2023-02-12T08:11:42;102689.81;;;6.57;100.00
10060;BME280;5069;49.306;8.636;2023-02-12T08:14:43;102695.09;;;6.58;100.00
10060;BME280;5069;49.306;8.636;2023-02-12T08:17:45;102702.16;;;6.62;100.00
10060;BME280;5069;49.306;8.636;2023-02-12T08:20:46;102701.28;;;6.62;100.00
10060;BME280;5069;49.306;8.636;2023-02-12T08:23:48;102696.97;;;6.64;100.00
10060;BME280;5069;49.306;8.636;2023-02-12T08:26:51;102699.72;;;6.70;100.00
10060;BME280;5069;49.306;8.636;2023-02-12T08:29:52;102710.34;;;6.79;100.00
10060;BME280;5069;49.306;8.636;2023-02-12T08:32:54;102703.53;;;6.87;100.00
10060;BME280;5069;49.306;8.636;2023-02-12T08:39:06;102705.41;;;6.94;100.00
10060;BME280;5069;49.306;8.636;2023-02-12T08:42:08;102702.97;;;7.06;100.00
10060;BME280;5069;49.306;8.636;2023-02-12T08:45:09;102710.00;;;7.06;100.00
10060;BME280;5069;49.306;8.636;2023-02-12T08:48:11;102708.34;;;7.13;100.00
10060;BME280;5069;49.306;8.636;2023-02-12T08:51:18;102707.59;;;7.20;100.00
10060;BME280;5069;49.306;8.636;2023-02-12T08:54:22;102705.03;;;7.24;100.00
10060;BME280;5069;49.306;8.636;2023-02-12T08:57:24;102713.81;;;7.26;100.00
10060;BME280;5069;49.306;8.636;2023-02-12T09:00:25;102720.91;;;7.32;100.00
10060;BME280;5069;49.306;8.636;2023-02-12T09:03:27;102720.00;;;7.30;100.00
10060;BME280;5069;49.306;8.636;2023-02-12T09:06:31;102722.84;;;7.42;100.00
10060;BME280;5069;49.306;8.636;2023-02-12T09:09:33;102718.28;;;7.32;100.00
10060;BME280;5069;49.306;8.636;2023-02-12T09:12:34;102727.06;;;7.32;100.00
10060;BME280;5069;49.306;8.636;2023-02-12T09:15:37;102720.00;;;7.30;100.00
10060;BME280;5069;49.306;8.636;2023-02-12T09:18:38;102729.81;;;7.40;100.00
10060;BME280;5069;49.306;8.636;2023-02-12T09:21:41;102725.53;;;7.45;100.00
10060;BME280;5069;49.306;8.636;2023-02-12T09:24:42;102730.66;;;7.40;100.00
10060;BME280;5069;49.306;8.636;2023-02-12T09:27:44;102723.00;;;7.53;100.00
10060;BME280;5069;49.306;8.636;2023-02-12T09:30:45;102724.75;;;7.51;100.00
10060;BME280;5069;49.306;8.636;2023-02-12T09:33:48;102724.75;;;7.52;100.00
10060;BME280;5069;49.306;8.636;2023-02-12T09:36:54;102733.59;;;7.59;100.00
10060;BME280;5069;49.306;8.636;2023-02-12T09:39:55;102724.91;;;7.61;100.00
10060;BME280;5069;49.306;8.636;2023-02-12T09:42:59;102731.81;;;7.58;100.00
10060;BME280;5069;49.306;8.636;2023-02-12T09:46:18;102724.09;;;7.65;100.00
10060;BME280;5069;49.306;8.636;2023-02-12T09:52:54;102726.91;;;7.77;100.00
10060;BME280;5069;49.306;8.636;2023-02-12T09:55:58;102725.28;;;7.85;100.00
10060;BME280;5069;49.306;8.636;2023-02-12T09:59:01;102732.47;;;7.97;100.00
10060;BME280;5069;49.306;8.636;2023-02-12T10:02:15;102725.53;;;8.02;100.00
10060;BME280;5069;49.306;8.636;2023-02-12T10:05:31;102719.41;;;8.05;100.00
10060;BME280;5069;49.306;8.636;2023-02-12T10:08:45;102727.38;;;8.11;100.00
10060;BME280;5069;49.306;8.636;2023-02-12T10:15:31;102728.38;;;8.20;100.00
10060;BME280;5069;49.306;8.636;2023-02-12T10:18:42;102721.56;;;8.33;100.00
10060;BME280;5069;49.306;8.636;2023-02-12T10:22:41;102723.22;;;8.28;100.00
10060;BME280;5069;49.306;8.636;2023-02-12T10:26:05;102720.75;;;8.39;100.00
10060;BME280;5069;49.306;8.636;2023-02-12T10:29:16;102716.31;;;8.33;100.00
10060;BME280;5069;49.306;8.636;2023-02-12T10:32:25;102721.69;;;8.41;100.00
10060;BME280;5069;49.306;8.636;2023-02-12T10:35:29;102718.19;;;8.42;100.00
10060;BME280;5069;49.306;8.636;2023-02-12T10:38:35;102703.28;;;8.44;100.00
10060;BME280;5069;49.306;8.636;2023-02-12T10:41:46;102709.47;;;8.46;100.00
10060;BME280;5069;49.306;8.636;2023-02-12T10:44:49;102698.22;;;8.57;100.00
10060;BME280;5069;49.306;8.636;2023-02-12T10:47:53;102696.59;;;8.68;100.00
10060;BME280;5069;49.306;8.636;2023-02-12T10:51:20;102695.75;;;8.73;100.00
10060;BME280;5069;49.306;8.636;2023-02-12T10:54:34;102691.47;;;8.82;100.00
10060;BME280;5069;49.306;8.636;2023-02-12T10:57:37;102690.69;;;8.91;100.00
10060;BME280;5069;49.306;8.636;2023-02-12T11:00:39;102685.59;;;9.09;100.00
10060;BME280;5069;49.306;8.636;2023-02-12T11:03:40;102681.19;;;9.08;100.00
10060;BME280;5069;49.306;8.636;2023-02-12T11:06:55;102686.53;;;9.19;100.00
10060;BME280;5069;49.306;8.636;2023-02-12T11:09:57;102680.50;;;9.27;100.00
10060;BME280;5069;49.306;8.636;2023-02-12T11:13:00;102675.25;;;9.30;100.00
10060;BME280;5069;49.306;8.636;2023-02-12T11:16:02;102687.56;;;9.33;100.00
10060;BME280;5069;49.306;8.636;2023-02-12T11:19:06;102674.44;;;9.42;100.00
10060;BME280;5069;49.306;8.636;2023-02-12T11:22:12;102673.66;;;9.50;98.61
10060;BME280;5069;49.306;8.636;2023-02-12T11:25:19;102674.53;;;9.49;99.43
10060;BME280;5069;49.306;8.636;2023-02-12T11:28:22;102679.75;;;9.45;99.69
10060;BME280;5069;49.306;8.636;2023-02-12T11:31:28;102661.41;;;9.59;99.54
10060;BME280;5069;49.306;8.636;2023-02-12T11:34:30;102659.69;;;9.64;97.88
10060;BME280;5069;49.306;8.636;2023-02-12T11:37:32;102661.44;;;9.62;97.90
10060;BME280;5069;49.306;8.636;2023-02-12T11:40:36;102654.41;;;9.61;97.92
10060;BME280;5069;49.306;8.636;2023-02-12T11:43:38;102650.91;;;9.65;97.93
10060;BME280;5069;49.306;8.636;2023-02-12T11:46:50;102655.38;;;9.76;96.56
10060;BME280;5069;49.306;8.636;2023-02-12T11:49:57;102654.56;;;9.88;95.22
10060;BME280;5069;49.306;8.636;2023-02-12T11:53:08;102659.81;;;9.91;95.01
10060;BME280;5069;49.306;8.636;2023-02-12T11:56:11;102651.09;;;9.98;94.05
10060;BME280;5069;49.306;8.636;2023-02-12T11:59:33;102646.84;;;10.21;93.78
10060;BME280;5069;49.306;8.636;2023-02-12T12:02:36;102639.81;;;10.23;92.06
10060;BME280;5069;49.306;8.636;2023-02-12T12:05:44;102637.19;;;10.26;91.86
10060;BME280;5069;49.306;8.636;2023-02-12T12:08:55;102642.47;;;10.32;90.69
10060;BME280;5069;49.306;8.636;2023-02-12T12:12:16;102622.28;;;10.38;90.22
10060;BME280;5069;49.306;8.636;2023-02-12T12:18:49;102628.47;;;10.47;88.65
10060;BME280;5069;49.306;8.636;2023-02-12T12:22:53;102622.34;;;10.59;88.07
10060;BME280;5069;49.306;8.636;2023-02-12T12:26:04;102622.31;;;10.60;88.43
10060;BME280;5069;49.306;8.636;2023-02-12T12:29:17;102624.94;;;10.51;86.55
10060;BME280;5069;49.306;8.636;2023-02-12T12:32:23;102620.56;;;10.53;87.33
10060;BME280;5069;49.306;8.636;2023-02-12T12:35:38;102606.47;;;10.54;87.74
10060;BME280;5069;49.306;8.636;2023-02-12T12:38:55;102607.41;;;10.64;87.31
10060;BME280;5069;49.306;8.636;2023-02-12T12:45:50;102599.47;;;10.84;84.90
10060;BME280;5069;49.306;8.636;2023-02-12T12:49:47;102600.34;;;10.99;84.22
10060;BME280;5069;49.306;8.636;2023-02-12T13:00:07;102573.94;;;11.33;82.40
10060;BME280;5069;49.306;8.636;2023-02-12T13:09:35;102575.69;;;11.43;78.91
10060;BME280;5069;49.306;8.636;2023-02-12T13:13:02;102566.03;;;11.27;79.82
10060;BME280;5069;49.306;8.636;2023-02-12T13:16:27;102570.41;;;11.31;80.16
10060;BME280;5069;49.306;8.636;2023-02-12T13:29:53;102554.91;;;12.51;73.39
10060;BME280;5069;49.306;8.636;2023-02-12T13:33:34;102552.19;;;12.63;73.17
10060;BME280;5069;49.306;8.636;2023-02-12T13:36:35;102542.53;;;12.55;72.12
10060;BME280;5069;49.306;8.636;2023-02-12T13:39:40;102552.19;;;12.60;72.05
10060;BME280;5069;49.306;8.636;2023-02-12T13:42:52;102538.13;;;12.58;71.70
10060;BME280;5069;49.306;8.636;2023-02-12T13:52:35;102536.00;;;12.97;70.11
10060;BME280;5069;49.306;8.636;2023-02-12T13:58:53;102542.00;;;13.17;68.48
10060;BME280;5069;49.306;8.636;2023-02-12T14:02:01;102538.47;;;13.19;68.79
10060;BME280;5069;49.306;8.636;2023-02-12T14:05:19;102535.75;;;13.24;67.97
10060;BME280;5069;49.306;8.636;2023-02-12T14:08:40;102534.88;;;13.22;68.43
10060;BME280;5069;49.306;8.636;2023-02-12T14:11:50;102530.41;;;13.30;67.53
10060;BME280;5069;49.306;8.636;2023-02-12T14:15:02;102529.78;;;13.04;68.88
10060;BME280;5069;49.306;8.636;2023-02-12T14:24:49;102528.94;;;12.97;69.86
10060;BME280;5069;49.306;8.636;2023-02-12T14:37:32;102522.75;;;12.98;70.09
10060;BME280;5069;49.306;8.636;2023-02-12T14:40:40;102520.13;;;12.97;69.53
10060;BME280;5069;49.306;8.636;2023-02-12T14:43:42;102516.72;;;12.84;70.11
10060;BME280;5069;49.306;8.636;2023-02-12T14:47:13;102520.44;;;12.60;71.07
10060;BME280;5069;49.306;8.636;2023-02-12T14:50:38;102502.78;;;12.62;72.13
10060;BME280;5069;49.306;8.636;2023-02-12T14:53:43;102502.09;;;12.36;73.31
10060;BME280;5069;49.306;8.636;2023-02-12T14:56:48;102499.53;;;12.27;73.78
10060;BME280;5069;49.306;8.636;2023-02-12T15:00:02;102497.97;;;12.02;75.00
10060;BME280;5069;49.306;8.636;2023-02-12T15:06:16;102503.38;;;11.74;77.74
10060;BME280;5069;49.306;8.636;2023-02-12T15:09:47;102497.22;;;11.75;77.77
10060;BME280;5069;49.306;8.636;2023-02-12T15:13:30;102493.75;;;11.61;78.80
10060;BME280;5069;49.306;8.636;2023-02-12T15:17:08;102488.44;;;11.61;78.99
10060;BME280;5069;49.306;8.636;2023-02-12T15:20:19;102491.13;;;11.53;79.94
10060;BME280;5069;49.306;8.636;2023-02-12T15:23:37;102482.34;;;11.48;80.07
10060;BME280;5069;49.306;8.636;2023-02-12T15:26:58;102486.75;;;11.40;81.39
10060;BME280;5069;49.306;8.636;2023-02-12T15:30:01;102482.34;;;11.42;81.27
10060;BME280;5069;49.306;8.636;2023-02-12T15:33:04;102487.66;;;11.38;81.88
10060;BME280;5069;49.306;8.636;2023-02-12T15:36:08;102478.88;;;11.30;81.96
10060;BME280;5069;49.306;8.636;2023-02-12T15:39:17;102474.50;;;11.23;82.84
10060;BME280;5069;49.306;8.636;2023-02-12T15:42:27;102478.91;;;11.21;83.29
10060;BME280;5069;49.306;8.636;2023-02-12T15:45:35;102479.78;;;11.24;82.94
10060;BME280;5069;49.306;8.636;2023-02-12T15:48:36;102478.03;;;11.22;82.90
10060;BME280;5069;49.306;8.636;2023-02-12T15:51:39;102474.50;;;11.18;83.17
10060;BME280;5069;49.306;8.636;2023-02-12T15:54:43;102476.28;;;11.19;83.07
10060;BME280;5069;49.306;8.636;2023-02-12T15:57:48;102474.56;;;11.09;83.50
10060;BME280;5069;49.306;8.636;2023-02-12T16:00:52;102475.44;;;11.00;84.21
10060;BME280;5069;49.306;8.636;2023-02-12T16:03:57;102473.66;;;11.05;84.36
10060;BME280;5069;49.306;8.636;2023-02-12T16:07:00;102474.56;;;10.94;84.42
10060;BME280;5069;49.306;8.636;2023-02-12T16:10:03;102465.75;;;11.01;84.69
10060;BME280;5069;49.306;8.636;2023-02-12T16:13:05;102467.56;;;10.93;84.87
10060;BME280;5069;49.306;8.636;2023-02-12T16:16:15;102469.31;;;10.78;85.64
10060;BME280;5069;49.306;8.636;2023-02-12T16:19:32;102471.09;;;10.78;85.34
10060;BME280;5069;49.306;8.636;2023-02-12T16:22:39;102471.09;;;10.75;85.46
10060;BME280;5069;49.306;8.636;2023-02-12T16:25:41;102458.81;;;10.65;86.46
10060;BME280;5069;49.306;8.636;2023-02-12T16:28:49;102470.22;;;10.67;86.38
10060;BME280;5069;49.306;8.636;2023-02-12T16:31:52;102478.16;;;10.52;87.24
10060;BME280;5069;49.306;8.636;2023-02-12T16:35:00;102478.16;;;10.41;88.16
10060;BME280;5069;49.306;8.636;2023-02-12T16:41:55;102486.06;;;10.33;89.05
10060;BME280;5069;49.306;8.636;2023-02-12T16:44:56;102480.75;;;10.26;90.03
10060;BME280;5069;49.306;8.636;2023-02-12T16:54:33;102502.66;;;9.99;92.20
10060;BME280;5069;49.306;8.636;2023-02-12T16:57:35;102514.94;;;9.89;92.99
10060;BME280;5069;49.306;8.636;2023-02-12T17:00:36;102505.22;;;9.81;94.02
10060;BME280;5069;49.306;8.636;2023-02-12T17:03:39;102510.50;;;9.72;94.67
10060;BME280;5069;49.306;8.636;2023-02-12T17:06:40;102504.28;;;9.64;95.40
10060;BME280;5069;49.306;8.636;2023-02-12T17:09:43;102503.38;;;9.52;96.37
10060;BME280;5069;49.306;8.636;2023-02-12T17:12:45;102507.75;;;9.44;96.92
10060;BME280;5069;49.306;8.636;2023-02-12T17:15:56;102506.78;;;9.35;97.29
10060;BME280;5069;49.306;8.636;2023-02-12T17:18:59;102514.69;;;9.27;98.85
10060;BME280;5069;49.306;8.636;2023-02-12T17:22:01;102515.50;;;9.20;98.57
10060;BME280;5069;49.306;8.636;2023-02-12T17:25:04;102511.06;;;9.10;99.01
10060;BME280;5069;49.306;8.636;2023-02-12T17:28:05;102518.88;;;9.01;100.00
10060;BME280;5069;49.306;8.636;2023-02-12T17:31:09;102511.81;;;8.91;100.00
10060;BME280;5069;49.306;8.636;2023-02-12T17:34:11;102524.03;;;8.83;100.00
10060;BME280;5069;49.306;8.636;2023-02-12T17:37:12;102520.34;;;8.61;100.00
10060;BME280;5069;49.306;8.636;2023-02-12T17:40:13;102519.34;;;8.47;100.00
10060;BME280;5069;49.306;8.636;2023-02-12T17:43:15;102518.47;;;8.46;100.00
10060;BME280;5069;49.306;8.636;2023-02-12T17:46:19;102529.81;;;8.44;100.00
10060;BME280;5069;49.306;8.636;2023-02-12T17:49:21;102523.50;;;8.28;100.00
10060;BME280;5069;49.306;8.636;2023-02-12T17:52:22;102530.38;;;8.12;100.00
10060;BME280;5069;49.306;8.636;2023-02-12T17:55:24;102537.34;;;8.10;100.00
10060;BME280;5069;49.306;8.636;2023-02-12T17:58:25;102543.44;;;8.06;100.00
10060;BME280;5069;49.306;8.636;2023-02-12T18:01:27;102537.13;;;7.92;100.00
10060;BME280;5069;49.306;8.636;2023-02-12T18:04:30;102544.16;;;7.92;100.00
10060;BME280;5069;49.306;8.636;2023-02-12T18:07:35;102537.13;;;7.91;100.00
10060;BME280;5069;49.306;8.636;2023-02-12T18:10:39;102551.16;;;7.93;100.00
10060;BME280;5069;49.306;8.636;2023-02-12T18:13:41;102551.06;;;7.85;100.00
10060;BME280;5069;49.306;8.636;2023-02-12T18:16:43;102552.53;;;7.63;100.00